Time;durP1;ratioP1;P1;durP2;ratioP2;P2;SDS_P1;SDS_P2;PMS_P1;PMS_P2;Temp;Humidity;BMP_temperature;BMP_pressure;BME280_temperature;BME280_humidity;BME280_pressure;Samples;Min_cycle;Max_cycle;Signal;HPM_P1;HPM_P2
2021/08/01 00:01:22;;;;;;;0.20;0.20;;;14.50;99.90;;;;;;5032751;28;20429;-85
2021/08/01 00:03:49;;;;;;;1.05;0.30;;;14.50;99.90;;;;;;5032493;28;20083;-85
2021/08/01 00:06:15;;;;;;;0.00;0.00;;;14.50;99.90;;;;;;5032429;28;20041;-85
2021/08/01 00:08:41;;;;;;;0.10;0.10;;;14.50;99.90;;;;;;5032112;28;20033;-85
2021/08/01 00:11:07;;;;;;;0.10;0.10;;;14.50;99.90;;;;;;5031105;28;20123;-85
2021/08/01 00:13:33;;;;;;;0.53;0.53;;;14.50;99.90;;;;;;5031947;28;20032;-85
2021/08/01 00:16:00;;;;;;;0.30;0.30;;;14.50;99.90;;;;;;5032181;28;20459;-85
2021/08/01 00:18:26;;;;;;;0.30;0.30;;;14.50;99.90;;;;;;5030814;28;20034;-85
2021/08/01 00:20:52;;;;;;;0.30;0.30;;;14.50;99.90;;;;;;5030858;28;20029;-85
2021/08/01 00:23:17;;;;;;;0.10;0.10;;;14.50;99.90;;;;;;5031907;28;20072;-85
2021/08/01 00:25:43;;;;;;;0.17;0.17;;;14.50;99.90;;;;;;5031883;28;20032;-85
2021/08/01 00:28:09;;;;;;;0.13;0.13;;;14.50;99.90;;;;;;5031582;28;20029;-85
2021/08/01 00:30:35;;;;;;;0.67;0.20;;;14.50;99.90;;;;;;5031631;28;20087;-85
2021/08/01 00:33:01;;;;;;;0.28;0.28;;;14.40;99.90;;;;;;5031391;28;20030;-85
2021/08/01 00:35:27;;;;;;;0.30;0.30;;;14.50;99.90;;;;;;5031489;28;20038;-85
2021/08/01 00:37:53;;;;;;;0.17;0.10;;;14.50;99.90;;;;;;5031103;28;20071;-85
2021/08/01 00:40:20;;;;;;;0.27;0.27;;;14.50;99.90;;;;;;5031322;28;20056;-85
2021/08/01 00:42:46;;;;;;;0.10;0.10;;;14.50;99.90;;;;;;5029815;28;20037;-85
2021/08/01 00:45:13;;;;;;;0.30;0.30;;;14.50;99.90;;;;;;5031354;28;20025;-85
2021/08/01 00:47:40;;;;;;;0.20;0.20;;;14.50;99.90;;;;;;5031228;28;20037;-85
2021/08/01 00:50:07;;;;;;;2.65;0.95;;;14.50;99.90;;;;;;5031436;28;20041;-85
2021/08/01 00:52:35;;;;;;;0.20;0.20;;;14.40;99.90;;;;;;5030094;28;20040;-85
2021/08/01 00:55:03;;;;;;;0.25;0.25;;;14.50;99.90;;;;;;5031478;28;20027;-85
2021/08/01 00:57:29;;;;;;;0.13;0.13;;;14.40;99.90;;;;;;5031139;28;20095;-85
2021/08/01 00:59:55;;;;;;;0.83;0.33;;;14.40;99.90;;;;;;5031241;28;20405;-86
2021/08/01 01:02:29;;;;;;;0.20;0.20;;;14.50;99.90;;;;;;5031472;28;20108;-85
2021/08/01 01:05:16;;;;;;;0.10;0.10;;;14.40;99.90;;;;;;5031172;28;20116;-85
2021/08/01 01:07:54;;;;;;;0.20;0.20;;;14.40;99.90;;;;;;5030940;28;20745;-85
2021/08/01 01:10:42;;;;;;;0.10;0.10;;;14.40;99.90;;;;;;5031297;28;20029;-85
2021/08/01 01:13:13;;;;;;;0.28;0.28;;;14.40;99.90;;;;;;5030950;28;20025;-85
2021/08/01 01:15:48;;;;;;;0.20;0.20;;;14.40;99.90;;;;;;5030841;28;20097;-85
2021/08/01 01:18:17;;;;;;;1.02;0.82;;;14.30;99.90;;;;;;5031010;28;20056;-86
2021/08/01 01:20:55;;;;;;;0.17;0.17;;;14.30;99.90;;;;;;5031066;28;20119;-85
2021/08/01 01:23:42;;;;;;;0.22;0.22;;;14.30;99.90;;;;;;5030887;28;20131;-85
2021/08/01 01:26:18;;;;;;;0.25;0.25;;;14.30;99.90;;;;;;5030790;28;20052;-85
2021/08/01 01:28:50;;;;;;;0.10;0.10;;;14.30;99.90;;;;;;5030896;28;20036;-85
2021/08/01 01:31:33;;;;;;;0.20;0.20;;;14.40;99.90;;;;;;5030807;28;20048;-85
2021/08/01 01:34:16;;;;;;;0.82;0.73;;;14.30;99.90;;;;;;5028966;28;20033;-85
2021/08/01 01:36:43;;;;;;;0.20;0.20;;;14.30;99.90;;;;;;5029270;28;20030;-85
2021/08/01 01:39:11;;;;;;;0.30;0.30;;;14.30;99.90;;;;;;5030633;28;20025;-85
2021/08/01 01:41:40;;;;;;;0.10;0.10;;;14.20;99.90;;;;;;5030722;28;20036;-85
2021/08/01 01:44:08;;;;;;;0.30;0.30;;;14.20;99.90;;;;;;5049710;28;20029;-85
2021/08/01 01:46:36;;;;;;;0.43;0.10;;;14.20;99.90;;;;;;5050158;28;20186;-85
2021/08/01 01:49:04;;;;;;;0.00;0.00;;;14.20;99.90;;;;;;5048796;28;20516;-85
2021/08/01 01:51:32;;;;;;;0.28;0.28;;;14.20;99.90;;;;;;5050559;28;20033;-85
2021/08/01 01:53:58;;;;;;;0.40;0.40;;;14.30;99.90;;;;;;5050273;28;20021;-85
2021/08/01 01:56:27;;;;;;;0.55;0.55;;;14.30;99.90;;;;;;5050162;28;20056;-85
2021/08/01 01:58:54;;;;;;;0.98;0.90;;;14.30;99.90;;;;;;5050283;28;20014;-85
2021/08/01 02:01:20;;;;;;;0.20;0.20;;;14.30;99.90;;;;;;5050310;28;20027;-85
2021/08/01 02:03:45;;;;;;;0.17;0.17;;;14.30;99.90;;;;;;5049071;28;20528;-85
2021/08/01 02:06:15;;;;;;;0.10;0.10;;;14.30;99.90;;;;;;5050119;28;20025;-85
2021/08/01 02:09:02;;;;;;;0.10;0.10;;;14.30;99.90;;;;;;5050296;28;20540;-85
2021/08/01 02:11:36;;;;;;;0.15;0.15;;;14.30;99.90;;;;;;5050084;28;20450;-85
2021/08/01 02:14:12;;;;;;;0.85;0.30;;;14.30;99.90;;;;;;5048413;28;20035;-85
2021/08/01 02:16:42;;;;;;;0.10;0.10;;;14.30;99.90;;;;;;5049000;28;20025;-85
2021/08/01 02:19:09;;;;;;;0.35;0.35;;;14.30;99.90;;;;;;5052500;28;20028;-85
2021/08/01 02:21:39;;;;;;;1.23;0.40;;;14.30;99.90;;;;;;5056724;28;20755;-85
2021/08/01 02:24:07;;;;;;;0.20;0.20;;;14.30;99.90;;;;;;5054764;28;20024;-85
2021/08/01 02:26:35;;;;;;;0.75;0.75;;;14.30;99.90;;;;;;5043491;28;20108;-85
2021/08/01 02:29:03;;;;;;;0.50;0.40;;;14.30;99.90;;;;;;5036548;28;20031;-85
2021/08/01 02:31:30;;;;;;;2.50;0.32;;;14.20;99.90;;;;;;5036655;28;20031;-85
2021/08/01 02:33:56;;;;;;;3.60;1.40;;;14.20;99.90;;;;;;5035141;28;20029;-85
2021/08/01 02:36:24;;;;;;;1.13;1.05;;;14.10;99.90;;;;;;5049668;28;20032;-85
2021/08/01 02:38:53;;;;;;;0.10;0.10;;;14.00;99.90;;;;;;5054372;28;20393;-85
2021/08/01 02:41:40;;;;;;;0.65;0.35;;;14.00;99.90;;;;;;5052553;28;20443;-86
2021/08/01 02:44:11;;;;;;;2.72;0.85;;;13.90;99.90;;;;;;5056110;28;20060;-85
2021/08/01 02:46:40;;;;;;;1.08;0.40;;;13.90;99.90;;;;;;5056417;28;20036;-85
2021/08/01 02:49:10;;;;;;;0.63;0.35;;;13.90;99.90;;;;;;5054501;28;20025;-85
2021/08/01 02:51:35;;;;;;;0.57;0.57;;;13.80;99.90;;;;;;5056380;28;20104;-85
2021/08/01 02:54:03;;;;;;;0.37;0.37;;;13.80;99.90;;;;;;5056507;28;20103;-85
2021/08/01 02:56:33;;;;;;;0.10;0.10;;;13.80;99.90;;;;;;5055887;28;20052;-85
2021/08/01 02:59:00;;;;;;;1.65;1.10;;;13.70;99.90;;;;;;5056093;28;20021;-85
2021/08/01 03:01:29;;;;;;;0.47;0.47;;;13.70;99.90;;;;;;5056157;28;20028;-85
2021/08/01 03:03:58;;;;;;;0.10;0.10;;;13.70;99.90;;;;;;5055976;28;20076;-85
2021/08/01 03:06:24;;;;;;;0.10;0.10;;;13.80;99.90;;;;;;5056181;28;20660;-85
2021/08/01 03:08:50;;;;;;;0.10;0.10;;;14.00;99.90;;;;;;5056258;28;20031;-85
2021/08/01 03:11:22;;;;;;;0.37;0.37;;;14.00;99.90;;;;;;5055844;28;20452;-85
2021/08/01 03:13:48;;;;;;;0.20;0.20;;;14.10;99.90;;;;;;5056013;28;20059;-85
2021/08/01 03:16:14;;;;;;;0.40;0.40;;;14.20;99.90;;;;;;5054456;28;20091;-86
2021/08/01 03:18:40;;;;;;;0.83;0.80;;;14.20;99.90;;;;;;5054545;28;20033;-85
2021/08/01 03:21:06;;;;;;;0.60;0.60;;;14.20;99.90;;;;;;5056212;28;20060;-85
2021/08/01 03:23:31;;;;;;;0.33;0.33;;;14.30;99.90;;;;;;5055667;28;20033;-85
2021/08/01 03:25:57;;;;;;;1.30;0.60;;;14.20;99.90;;;;;;5056121;28;20032;-85
2021/08/01 03:28:23;;;;;;;0.10;0.10;;;14.20;99.90;;;;;;5054052;28;20439;-84
2021/08/01 03:30:49;;;;;;;0.10;0.10;;;14.20;99.90;;;;;;5051292;28;20033;-85
2021/08/01 03:33:14;;;;;;;0.37;0.37;;;14.10;99.90;;;;;;5052682;28;20513;-85
2021/08/01 03:35:40;;;;;;;0.53;0.53;;;14.10;99.90;;;;;;5052661;28;20025;-86
2021/08/01 03:38:06;;;;;;;0.20;0.20;;;14.10;99.90;;;;;;5053067;28;20025;-85
2021/08/01 03:40:32;;;;;;;0.30;0.30;;;14.00;99.90;;;;;;5052607;28;20025;-85
2021/08/01 03:42:57;;;;;;;0.87;0.30;;;14.00;99.90;;;;;;5052811;28;20028;-85
2021/08/01 03:45:23;;;;;;;0.20;0.20;;;14.00;99.90;;;;;;5052635;28;20400;-85
2021/08/01 03:47:49;;;;;;;0.27;0.27;;;14.00;99.90;;;;;;5052557;28;20037;-85
2021/08/01 03:50:15;;;;;;;0.50;0.47;;;14.00;99.90;;;;;;5051608;28;20524;-85
2021/08/01 03:52:40;;;;;;;0.10;0.10;;;13.90;99.90;;;;;;5052555;28;20044;-85
2021/08/01 03:55:07;;;;;;;0.50;0.50;;;13.80;99.90;;;;;;5052727;28;20543;-85
2021/08/01 03:57:32;;;;;;;0.50;0.50;;;13.70;99.90;;;;;;5051983;28;20052;-85
2021/08/01 03:59:58;;;;;;;0.30;0.30;;;13.60;99.90;;;;;;5052608;28;20033;-85
2021/08/01 04:02:24;;;;;;;0.17;0.17;;;13.60;99.90;;;;;;5052567;28;20029;-85
2021/08/01 04:04:50;;;;;;;0.47;0.47;;;13.50;99.90;;;;;;5052725;28;20024;-85
2021/08/01 04:07:16;;;;;;;0.10;0.10;;;13.60;99.90;;;;;;5052183;28;20029;-85
2021/08/01 04:09:41;;;;;;;1.10;0.87;;;13.70;99.90;;;;;;5052003;28;20021;-85
2021/08/01 04:12:07;;;;;;;1.07;1.00;;;13.80;99.90;;;;;;5052500;28;20029;-85
2021/08/01 04:14:35;;;;;;;0.27;0.27;;;13.80;99.90;;;;;;5052264;28;20048;-85
2021/08/01 04:17:01;;;;;;;0.75;0.63;;;13.80;99.90;;;;;;5052193;28;20017;-85
2021/08/01 04:19:27;;;;;;;0.20;0.20;;;13.80;99.90;;;;;;5051986;28;20031;-85
2021/08/01 04:21:52;;;;;;;0.20;0.20;;;13.80;99.90;;;;;;5052236;28;20056;-85
2021/08/01 04:24:18;;;;;;;0.20;0.20;;;13.70;99.90;;;;;;5052228;28;20823;-85
2021/08/01 04:26:44;;;;;;;0.37;0.37;;;13.50;99.90;;;;;;5051928;28;20451;-85
2021/08/01 04:29:10;;;;;;;0.27;0.27;;;13.50;99.90;;;;;;5051856;28;20033;-85
2021/08/01 04:31:35;;;;;;;0.37;0.27;;;13.60;99.90;;;;;;5051798;28;20112;-85
2021/08/01 04:34:01;;;;;;;0.17;0.17;;;13.50;99.90;;;;;;5051767;28;20365;-85
2021/08/01 04:36:28;;;;;;;0.00;0.00;;;13.40;99.90;;;;;;5050601;28;20040;-85
2021/08/01 04:38:54;;;;;;;0.38;0.38;;;13.40;99.90;;;;;;5051788;28;20028;-85
2021/08/01 04:41:19;;;;;;;0.10;0.10;;;13.60;99.90;;;;;;5051583;28;20542;-85
2021/08/01 04:43:45;;;;;;;1.10;0.40;;;13.60;99.90;;;;;;5051191;28;20670;-85
2021/08/01 04:46:11;;;;;;;0.20;0.20;;;13.50;99.90;;;;;;5050301;28;20024;-85
2021/08/01 04:48:37;;;;;;;0.17;0.17;;;13.60;99.90;;;;;;5051216;28;20044;-85
2021/08/01 04:51:02;;;;;;;0.20;0.20;;;13.60;99.90;;;;;;5050275;28;20098;-85
2021/08/01 04:53:28;;;;;;;0.20;0.20;;;13.60;99.90;;;;;;5051404;28;20032;-85
2021/08/01 04:55:54;;;;;;;0.20;0.20;;;13.50;99.90;;;;;;5051401;28;20029;-85
2021/08/01 04:58:20;;;;;;;0.47;0.47;;;13.50;99.90;;;;;;5049767;28;20396;-85
2021/08/01 05:00:45;;;;;;;0.20;0.20;;;13.50;99.90;;;;;;5051497;28;20028;-85
2021/08/01 05:03:11;;;;;;;0.10;0.10;;;13.30;99.90;;;;;;5051197;28;20401;-85
2021/08/01 05:05:38;;;;;;;0.23;0.23;;;13.30;99.90;;;;;;5051022;28;20118;-85
2021/08/01 05:08:05;;;;;;;0.03;0.03;;;13.40;99.90;;;;;;5051221;28;20040;-85
2021/08/01 05:10:31;;;;;;;0.47;0.40;;;13.60;99.90;;;;;;5050697;28;20082;-85
2021/08/01 05:12:57;;;;;;;0.28;0.20;;;13.60;99.90;;;;;;5050440;28;20033;-85
2021/08/01 05:15:23;;;;;;;0.73;0.73;;;13.70;99.90;;;;;;5049523;28;20033;-85
2021/08/01 05:17:49;;;;;;;0.20;0.20;;;13.70;99.90;;;;;;5050589;28;20026;-85
2021/08/01 05:20:15;;;;;;;0.10;0.10;;;13.80;99.90;;;;;;5050543;28;20013;-85
2021/08/01 05:22:41;;;;;;;0.17;0.17;;;14.00;99.90;;;;;;5050499;28;20626;-85
2021/08/01 05:25:07;;;;;;;0.10;0.10;;;14.00;99.90;;;;;;5050424;28;20815;-85
2021/08/01 05:27:34;;;;;;;0.30;0.30;;;14.10;99.90;;;;;;5049181;28;20112;-85
2021/08/01 05:30:00;;;;;;;0.57;0.57;;;14.20;99.90;;;;;;5050329;28;20024;-85
2021/08/01 05:32:25;;;;;;;0.40;0.40;;;14.30;99.90;;;;;;5050075;28;20094;-85
2021/08/01 05:34:52;;;;;;;0.23;0.23;;;14.10;99.90;;;;;;5049854;28;20023;-85
2021/08/01 05:37:18;;;;;;;;;;;14.00;99.90;;;;;;5050590;28;20033;-85
2021/08/01 05:39:44;;;;;;;0.50;0.50;;;14.20;99.90;;;;;;5050079;28;20330;-85
2021/08/01 05:42:09;;;;;;;0.80;0.53;;;14.80;99.90;;;;;;5050442;28;20039;-85
2021/08/01 05:44:35;;;;;;;0.10;0.10;;;15.20;99.90;;;;;;5050305;28;20032;-85
2021/08/01 05:47:06;;;;;;;0.17;0.17;;;15.00;99.90;;;;;;5050352;28;20063;-85
2021/08/01 05:49:33;;;;;;;0.10;0.10;;;14.60;99.90;;;;;;5050316;28;20082;-85
2021/08/01 05:51:59;;;;;;;0.10;0.10;;;14.40;99.90;;;;;;5048575;28;20479;-85
2021/08/01 05:54:25;;;;;;;0.20;0.20;;;14.40;99.90;;;;;;5049145;28;20035;-85
2021/08/01 05:56:51;;;;;;;1.50;0.30;;;14.30;99.90;;;;;;5049895;28;20056;-85
2021/08/01 05:59:17;;;;;;;0.30;0.23;;;14.30;99.90;;;;;;5048699;28;20333;-85
2021/08/01 06:01:43;;;;;;;0.20;0.20;;;14.40;99.90;;;;;;5050157;28;20374;-85
2021/08/01 06:04:09;;;;;;;0.73;0.70;;;14.40;99.90;;;;;;5048234;28;20061;-85
2021/08/01 06:06:35;;;;;;;0.20;0.20;;;14.20;99.90;;;;;;5050138;28;20033;-85
2021/08/01 06:09:02;;;;;;;0.10;0.10;;;14.40;99.90;;;;;;5049596;28;20025;-85
2021/08/01 06:11:28;;;;;;;0.82;0.30;;;14.30;99.90;;;;;;5049746;28;20060;-85
2021/08/01 06:13:54;;;;;;;0.10;0.10;;;14.50;99.90;;;;;;5048307;28;20029;-85
2021/08/01 06:16:21;;;;;;;0.10;0.10;;;15.20;99.90;;;;;;5049773;28;20048;-85
2021/08/01 06:18:48;;;;;;;0.10;0.10;;;15.30;99.90;;;;;;5049808;28;20132;-85
2021/08/01 06:21:18;;;;;;;0.90;0.17;;;19.00;99.90;;;;;;5049956;28;20021;-85
2021/08/01 06:23:46;;;;;;;0.17;0.17;;;22.90;99.90;;;;;;5049722;28;20068;-85
2021/08/01 06:26:13;;;;;;;0.10;0.10;;;23.20;99.90;;;;;;5049850;28;21384;-85
2021/08/01 06:28:39;;;;;;;0.22;0.20;;;21.40;99.90;;;;;;5048832;28;20029;-85
2021/08/01 06:31:06;;;;;;;0.38;0.30;;;22.20;99.90;;;;;;5048563;28;20045;-85
2021/08/01 06:33:33;;;;;;;0.10;0.10;;;20.10;99.90;;;;;;5049799;28;20036;-85
2021/08/01 06:35:59;;;;;;;26.92;0.75;;;18.80;99.90;;;;;;5059806;28;20554;-85
2021/08/01 06:38:25;;;;;;;0.10;0.10;;;18.40;99.90;;;;;;5070195;28;20020;-85
2021/08/01 06:40:51;;;;;;;0.00;0.00;;;18.70;99.90;;;;;;5068695;28;20031;-85
2021/08/01 06:43:17;;;;;;;0.13;0.13;;;19.70;99.90;;;;;;5070070;28;20036;-85
2021/08/01 06:45:43;;;;;;;6.53;0.45;;;23.10;99.90;;;;;;5070124;28;20496;-86
2021/08/01 06:48:09;;;;;;;0.30;0.30;;;25.30;99.90;;;;;;5070006;28;20028;-85
2021/08/01 06:50:36;;;;;;;0.25;0.22;;;23.60;99.90;;;;;;5069888;28;20028;-85
2021/08/01 06:53:02;;;;;;;0.10;0.10;;;22.70;99.90;;;;;;5069919;28;20025;-85
2021/08/01 06:55:27;;;;;;;0.13;0.13;;;22.20;99.90;;;;;;5070060;28;20888;-85
2021/08/01 06:57:53;;;;;;;0.10;0.10;;;20.20;99.90;;;;;;5069587;28;20828;-85
2021/08/01 07:00:22;;;;;;;0.20;0.20;;;18.90;99.90;;;;;;5070017;28;20476;-85
2021/08/01 07:02:52;;;;;;;0.05;0.05;;;18.70;99.90;;;;;;5069856;28;20056;-85
2021/08/01 07:05:19;;;;;;;1.08;0.13;;;18.90;99.90;;;;;;5070435;28;20033;-86
2021/08/01 07:07:44;;;;;;;0.30;0.30;;;20.00;99.90;;;;;;5072195;28;20036;-85
2021/08/01 07:10:10;;;;;;;0.10;0.10;;;20.90;99.90;;;;;;5071984;28;20404;-85
2021/08/01 07:12:41;;;;;;;0.08;0.08;;;20.80;99.90;;;;;;5073477;28;20082;-85
2021/08/01 07:15:11;;;;;;;0.00;0.00;;;20.70;99.90;;;;;;5073433;28;20077;-86
2021/08/01 07:17:38;;;;;;;0.20;0.17;;;20.90;99.90;;;;;;5073171;28;20087;-85
2021/08/01 07:20:05;;;;;;;0.10;0.10;;;21.70;99.90;;;;;;5071992;28;20082;-85
2021/08/01 07:22:31;;;;;;;0.10;0.10;;;21.60;99.90;;;;;;5072995;28;20025;-85
2021/08/01 07:24:57;;;;;;;0.20;0.20;;;21.20;99.90;;;;;;5072856;28;20484;-86
2021/08/01 07:27:23;;;;;;;0.10;0.10;;;21.10;99.90;;;;;;5072753;28;20033;-85
2021/08/01 07:29:49;;;;;;;0.20;0.20;;;20.90;99.90;;;;;;5072988;28;20086;-85
2021/08/01 07:32:15;;;;;;;0.10;0.10;;;21.40;99.90;;;;;;5072551;28;20086;-85
2021/08/01 07:34:40;;;;;;;0.63;0.63;;;21.10;99.90;;;;;;5072683;28;20038;-85
2021/08/01 07:37:06;;;;;;;0.00;0.00;;;20.20;99.90;;;;;;5053364;28;20112;-85
2021/08/01 07:39:32;;;;;;;0.20;0.20;;;19.10;99.90;;;;;;5052452;28;20028;-86
2021/08/01 07:41:58;;;;;;;3.40;0.83;;;18.70;99.90;;;;;;5052887;28;20036;-85
2021/08/01 07:44:26;;;;;;;0.20;0.20;;;18.30;99.90;;;;;;5052196;28;20037;-85
2021/08/01 07:46:52;;;;;;;0.08;0.08;;;18.00;99.90;;;;;;5052901;28;20029;-85
2021/08/01 07:49:17;;;;;;;1.40;1.20;;;18.00;99.90;;;;;;5052514;28;20382;-86
2021/08/01 07:51:43;;;;;;;0.10;0.10;;;17.80;99.90;;;;;;5052856;28;20107;-85
2021/08/01 07:54:09;;;;;;;0.10;0.10;;;17.90;99.90;;;;;;5051188;28;20043;-85
2021/08/01 07:56:35;;;;;;;0.67;0.37;;;17.70;99.90;;;;;;5052289;28;20420;-85
2021/08/01 07:59:01;;;;;;;0.00;0.00;;;17.60;99.90;;;;;;5052367;28;20055;-85
2021/08/01 08:01:27;;;;;;;0.20;0.20;;;18.30;99.90;;;;;;5052519;28;20775;-85
2021/08/01 08:03:53;;;;;;;0.20;0.20;;;18.90;99.90;;;;;;5051341;28;20060;-85
2021/08/01 08:06:19;;;;;;;0.10;0.10;;;19.20;99.90;;;;;;5052322;28;20035;-85
2021/08/01 08:08:44;;;;;;;0.00;0.00;;;19.80;99.90;;;;;;5052375;28;20449;-85
2021/08/01 08:11:10;;;;;;;0.00;0.00;;;20.60;99.90;;;;;;5052390;28;20039;-85
2021/08/01 08:13:36;;;;;;;0.30;0.23;;;21.70;99.90;;;;;;5052029;28;20091;-85
2021/08/01 08:16:02;;;;;;;0.10;0.10;;;21.40;99.90;;;;;;5050237;28;20025;-86
2021/08/01 08:18:28;;;;;;;0.00;0.00;;;21.10;99.90;;;;;;5052020;28;20025;-86
2021/08/01 08:20:53;;;;;;;2.80;1.20;;;20.30;99.90;;;;;;5052295;28;20021;-85
2021/08/01 08:23:19;;;;;;;0.07;0.07;;;19.20;99.90;;;;;;5050290;28;20033;-85
2021/08/01 08:25:45;;;;;;;0.10;0.10;;;18.70;99.90;;;;;;5051987;28;20052;-86
2021/08/01 08:28:11;;;;;;;0.10;0.10;;;18.50;99.90;;;;;;5050852;28;20068;-85
2021/08/01 08:30:37;;;;;;;0.13;0.13;;;19.10;99.90;;;;;;5052009;28;20123;-85
2021/08/01 08:33:04;;;;;;;0.10;0.10;;;19.80;99.90;;;;;;5051600;28;20029;-86
2021/08/01 08:35:30;;;;;;;0.05;0.05;;;19.70;99.90;;;;;;5045772;28;20051;-85
2021/08/01 08:37:56;;;;;;;0.10;0.10;;;19.60;99.90;;;;;;5030469;28;20564;-85
2021/08/01 08:40:22;;;;;;;0.00;0.00;;;19.50;99.90;;;;;;5031950;28;20105;-85
2021/08/01 08:42:49;;;;;;;0.10;0.10;;;18.70;99.90;;;;;;5031663;28;20052;-85
2021/08/01 08:45:15;;;;;;;0.10;0.10;;;19.10;99.90;;;;;;5032029;28;20053;-85
2021/08/01 08:47:46;;;;;;;0.75;0.45;;;19.70;99.90;;;;;;5031795;28;20108;-85
2021/08/01 08:50:13;;;;;;;0.45;0.30;;;19.90;99.90;;;;;;5031677;28;20102;-85
2021/08/01 08:52:43;;;;;;;0.00;0.00;;;19.70;99.90;;;;;;5031313;28;20033;-85
2021/08/01 08:55:11;;;;;;;0.65;0.38;;;20.30;99.90;;;;;;5031614;28;20025;-85
2021/08/01 08:57:38;;;;;;;0.17;0.17;;;20.00;99.90;;;;;;5030924;28;20045;-85
2021/08/01 09:00:10;;;;;;;0.08;0.08;;;19.50;99.90;;;;;;5031908;28;20508;-85
2021/08/01 09:02:36;;;;;;;0.10;0.10;;;19.40;99.90;;;;;;5031498;28;20071;-85
2021/08/01 09:05:04;;;;;;;6.63;0.55;;;18.60;99.90;;;;;;5030233;28;20116;-85
2021/08/01 09:07:29;;;;;;;0.08;0.08;;;18.50;99.90;;;;;;5031233;28;20037;-85
2021/08/01 09:09:55;;;;;;;0.00;0.00;;;19.10;99.90;;;;;;5031361;28;20048;-85
2021/08/01 09:12:21;;;;;;;0.00;0.00;;;19.90;99.90;;;;;;5031205;28;20049;-85
2021/08/01 09:14:48;;;;;;;0.00;0.00;;;21.20;99.90;;;;;;5031404;28;20104;-85
2021/08/01 09:17:35;;;;;;;0.17;0.17;;;22.10;99.90;;;;;;5031224;28;20040;-86
2021/08/01 09:20:21;;;;;;;0.15;0.15;;;23.60;99.90;;;;;;5031421;28;20101;-86
2021/08/01 09:23:05;;;;;;;0.00;0.00;;;28.90;99.90;;;;;;5031337;28;20498;-86
2021/08/01 09:25:42;;;;;;;0.00;0.00;;;31.90;93.70;;;;;;5031365;28;20133;-85
2021/08/01 09:28:13;;;;;;;0.00;0.00;;;30.80;92.50;;;;;;5029078;28;20095;-86
2021/08/01 09:30:47;;;;;;;0.52;0.35;;;30.00;86.90;;;;;;5031214;28;20552;-86
2021/08/01 09:33:20;;;;;;;0.10;0.00;;;27.50;90.50;;;;;;5030838;28;20057;-86
2021/08/01 09:35:46;;;;;;;0.03;0.03;;;24.40;97.50;;;;;;5039190;28;20024;-86
2021/08/01 09:38:13;;;;;;;0.00;0.00;;;22.50;98.50;;;;;;5050907;28;20397;-85
2021/08/01 09:40:39;;;;;;;0.03;0.03;;;21.60;99.90;;;;;;5050891;28;20082;-85
2021/08/01 09:43:09;;;;;;;0.17;0.17;;;21.00;99.90;;;;;;5050794;28;20032;-85
2021/08/01 09:45:35;;;;;;;0.00;0.00;;;20.50;99.90;;;;;;5049630;28;20024;-86
2021/08/01 09:48:18;;;;;;;0.00;0.00;;;20.50;99.90;;;;;;5050625;28;20025;-85
2021/08/01 09:51:06;;;;;;;0.03;0.03;;;21.20;99.90;;;;;;5050985;28;20104;-86
2021/08/01 09:53:33;;;;;;;0.00;0.00;;;22.00;99.90;;;;;;5050779;28;20035;-86
2021/08/01 09:56:21;;;;;;;0.35;0.35;;;23.00;98.30;;;;;;5048891;28;20440;-86
2021/08/01 09:58:49;;;;;;;0.00;0.00;;;22.90;98.60;;;;;;5050299;28;20021;-86
2021/08/01 10:01:16;;;;;;;0.03;0.00;;;23.40;98.70;;;;;;5050853;28;20033;-86
2021/08/01 10:03:43;;;;;;;0.00;0.00;;;24.00;97.30;;;;;;5050370;28;20695;-85
2021/08/01 10:06:14;;;;;;;0.32;0.28;;;23.70;96.00;;;;;;5050352;28;20112;-86
2021/08/01 10:08:44;;;;;;;2.95;0.75;;;24.50;94.80;;;;;;5050775;28;20032;-86
2021/08/01 10:11:17;;;;;;;0.00;0.00;;;26.50;94.90;;;;;;5049158;28;20024;-86
2021/08/01 10:13:47;;;;;;;0.00;0.00;;;30.40;84.90;;;;;;5050393;28;20029;-86
2021/08/01 10:16:13;;;;;;;0.00;0.00;;;28.30;90.20;;;;;;5050319;28;20017;-85
2021/08/01 10:18:41;;;;;;;0.05;0.05;;;27.90;85.00;;;;;;5049146;28;20053;-86
2021/08/01 10:21:08;;;;;;;0.28;0.15;;;26.00;91.10;;;;;;5050048;28;20036;-86
2021/08/01 10:23:40;;;;;;;0.00;0.00;;;27.60;84.10;;;;;;5050366;28;20025;-86
2021/08/01 10:26:08;;;;;;;0.00;0.00;;;28.30;80.50;;;;;;5050207;28;20108;-86
2021/08/01 10:28:39;;;;;;;0.00;0.00;;;31.90;76.50;;;;;;5050111;28;20025;-86
2021/08/01 10:31:10;;;;;;;0.32;0.10;;;32.00;69.30;;;;;;5050232;28;20029;-85
2021/08/01 10:33:42;;;;;;;0.08;0.08;;;33.90;66.70;;;;;;5049985;28;20108;-86
2021/08/01 10:36:08;;;;;;;0.95;0.65;;;32.70;64.30;;;;;;5038913;28;20026;-86
2021/08/01 10:38:37;;;;;;;;;;;30.60;67.70;;;;;;5030770;28;20061;-86
2021/08/01 10:41:06;;;;;;;0.20;0.20;;;29.50;70.00;;;;;;5033485;28;19955;-86
2021/08/01 10:43:36;;;;;;;0.00;0.00;;;28.30;71.20;;;;;;5034310;28;20065;-86
2021/08/01 10:46:03;;;;;;;0.28;0.25;;;27.50;76.10;;;;;;5032638;28;20056;-85
2021/08/01 10:48:30;;;;;;;0.00;0.00;;;27.50;75.10;;;;;;5034203;28;20061;-86
2021/08/01 10:50:56;;;;;;;0.15;0.10;;;27.10;72.90;;;;;;5032809;28;20036;-86
2021/08/01 10:53:27;;;;;;;0.00;0.00;;;26.20;75.40;;;;;;5032838;28;20116;-86
2021/08/01 10:56:13;;;;;;;0.00;0.00;;;25.40;79.00;;;;;;5033866;28;20625;-86
2021/08/01 10:58:40;;;;;;;0.10;0.10;;;24.10;81.90;;;;;;5033654;28;20049;-86
2021/08/01 11:01:07;;;;;;;0.00;0.00;;;23.50;84.00;;;;;;5033608;28;20521;-86
2021/08/01 11:03:35;;;;;;;0.00;0.00;;;22.90;86.60;;;;;;5033805;28;20035;-86
2021/08/01 11:06:02;;;;;;;0.30;0.30;;;22.60;86.80;;;;;;5033517;28;20032;-86
2021/08/01 11:08:27;;;;;;;;;;;22.90;86.80;;;;;;5032707;28;20029;-86
2021/08/01 11:11:17;;;;;;;0.00;0.00;;;22.90;86.50;;;;;;5049299;28;19909;-86
2021/08/01 11:13:44;;;;;;;0.03;0.03;;;22.40;89.40;;;;;;5053065;28;20029;-86
2021/08/01 11:16:13;;;;;;;0.00;0.00;;;22.40;90.10;;;;;;5053548;28;20029;-86
2021/08/01 11:18:45;;;;;;;0.00;0.00;;;22.30;91.20;;;;;;5052219;28;20017;-86
2021/08/01 11:21:13;;;;;;;0.10;0.10;;;22.60;91.40;;;;;;5053540;28;20021;-86
2021/08/01 11:23:44;;;;;;;0.00;0.00;;;23.20;91.10;;;;;;5053735;28;20580;-86
2021/08/01 11:26:18;;;;;;;5.30;1.10;;;23.40;90.50;;;;;;5051902;28;20409;-86
2021/08/01 11:28:46;;;;;;;0.00;0.00;;;23.70;87.30;;;;;;5052065;28;20065;-86
2021/08/01 11:31:19;;;;;;;0.13;0.13;;;24.00;86.40;;;;;;5053104;28;20171;-86
2021/08/01 11:33:53;;;;;;;0.65;0.40;;;23.00;90.20;;;;;;5052744;28;20040;-86
2021/08/01 11:36:21;;;;;;;0.00;0.00;;;22.50;90.20;;;;;;5053002;28;20017;-85
2021/08/01 11:38:53;;;;;;;0.00;0.00;;;23.40;90.90;;;;;;5053342;28;20037;-86
2021/08/01 11:41:40;;;;;;;0.00;0.00;;;24.10;87.00;;;;;;5052710;28;20017;-86
2021/08/01 11:44:06;;;;;;;0.00;0.00;;;24.60;84.70;;;;;;5052693;28;20033;-86
2021/08/01 11:47:08;;;;;;;0.00;0.00;;;24.00;87.10;;;;;;5051660;28;20036;-86
2021/08/01 11:49:35;;;;;;;0.20;0.20;;;23.40;86.30;;;;;;5052847;28;20268;-86
2021/08/01 11:52:06;;;;;;;0.00;0.00;;;23.50;86.30;;;;;;5051632;28;20025;-86
2021/08/01 11:54:42;;;;;;;0.10;0.10;;;24.00;86.20;;;;;;5052568;28;20029;-86
2021/08/01 11:57:15;;;;;;;0.00;0.00;;;24.10;86.60;;;;;;5052445;28;20072;-86
2021/08/01 11:59:43;;;;;;;0.00;0.00;;;23.90;84.20;;;;;;5051199;28;20751;-86
2021/08/01 12:02:14;;;;;;;1.25;0.10;;;24.20;85.20;;;;;;5052458;28;20067;-86
2021/08/01 12:04:55;;;;;;;0.15;0.00;;;23.70;95.10;;;;;;5052453;28;20108;-86
2021/08/01 12:07:21;;;;;;;0.00;0.00;;;23.10;88.60;;;;;;5052228;28;20029;-86
2021/08/01 12:09:47;;;;;;;;;;;23.30;88.40;;;;;;5052665;28;20029;-86
2021/08/01 12:12:12;;;;;;;0.00;0.00;;;24.00;84.10;;;;;;5050755;28;20042;-86
2021/08/01 12:14:40;;;;;;;0.10;0.10;;;24.00;88.60;;;;;;5050830;28;20400;-86
2021/08/01 12:17:08;;;;;;;0.00;0.00;;;24.00;86.70;;;;;;5052050;28;20059;-86
2021/08/01 12:19:39;;;;;;;0.00;0.00;;;24.30;84.60;;;;;;5051755;28;20068;-86
2021/08/01 12:22:14;;;;;;;0.00;0.00;;;23.60;88.40;;;;;;5050631;28;20401;-86
2021/08/01 12:24:56;;;;;;;0.00;0.00;;;24.00;83.80;;;;;;5050663;28;20104;-86
2021/08/01 12:27:24;;;;;;;0.08;0.08;;;24.10;84.10;;;;;;5051306;28;20102;-86
2021/08/01 12:30:09;;;;;;;0.22;0.20;;;23.70;86.10;;;;;;5051717;28;20052;-86
2021/08/01 12:32:41;;;;;;;0.00;0.00;;;23.60;87.00;;;;;;5051429;28;20033;-86
2021/08/01 12:35:11;;;;;;;0.00;0.00;;;24.00;83.80;;;;;;5048793;28;20034;-86
2021/08/01 12:38:00;;;;;;;0.00;0.00;;;24.40;81.30;;;;;;5030207;28;20511;-86
2021/08/01 12:40:45;;;;;;;0.00;0.00;;;24.20;83.00;;;;;;5030267;28;20026;-86
2021/08/01 12:43:19;;;;;;;0.00;0.00;;;24.40;82.40;;;;;;5030193;28;20061;-86
2021/08/01 12:45:48;;;;;;;0.00;0.00;;;23.70;86.30;;;;;;5031359;28;20034;-86
2021/08/01 12:48:21;;;;;;;1.05;0.95;;;23.40;88.10;;;;;;5031547;28;20473;-86
2021/08/01 12:50:51;;;;;;;0.17;0.17;;;23.40;89.30;;;;;;5031272;28;20034;-86
2021/08/01 12:53:22;;;;;;;0.17;0.17;;;23.00;90.80;;;;;;5029898;28;20033;-86
2021/08/01 12:55:56;;;;;;;0.00;0.00;;;22.60;90.40;;;;;;5031100;28;20025;-86